Airfield :
LOGIN :

Register | Disclaimer

   EN    FR    IT 

 










Legend :    VFR   Marginal VFR   IFR   Intensive IFR   Very Intensive IFR
Visi :
Ceiling :
>= 8 km
>= 3000ft
5 to 8 km
1000 to 3000 ft
1500m to 5 km
500 to 1000 ft
800 to 1500m
200 to 500 ft
< 800m
< 200 ft
Symbols :   Thunderstorms  Fog  Heavy snow  Heavy precipitations  Wind > 20 kt
SIGMETs :     Misc.  Thunderstorms  Icing  Turbulence  Mountain Waves  Volcanic Ashes






- Airport Elevation : 203 ft
- IATA code : XMJ


LFBM - Mont-De-Marsan

CURRENT METAR :
  • 201100Z AUTO 26004KT 210V320 CAVOK 18/01 Q1014 NOSIG

EXPIRED METARs :
  • 201030Z AUTO 26006KT 220V290 CAVOK 17/05 Q1015 NOSIG
  • 201000Z AUTO 26006KT 220V290 CAVOK 16/07 Q1015 NOSIG
  • 200930Z AUTO 26006KT 230V310 CAVOK 15/07 Q1015 NOSIG
  • 200900Z AUTO 27007KT 240V300 CAVOK 14/07 Q1015 NOSIG
  • 200830Z AUTO 27005KT CAVOK 13/09 Q1015 NOSIG

TAF TAF LFBM
Valid from the 20 at 09:00 until the 21 at 09:00 UTC


200800Z 2009/2109 27005KT CAVOK
TEMPO 2012/2018 27010G20KT
BECMG 2023/2101 BKN004 BKN060



MET'MAP, your aeronautical weather chart ! - Copyright ORBIFLY December 2007 - Disclaimer

ORBIFLY MET'MAP TEAM :

Programming & Development : Alexandra Zaïnal
Concept & original design : Baudouin d'Aumeries
Assistance for programming : Marc-Olivier Méhu
Technical & hardware support : Manuel Goepfert

Contact : metmap@orbifly.com




SOURCES & CREDITS :

   NOAA